createdAt,value
2019-03-21T00:00:28.352Z,102599.50
2019-03-21T00:02:57.886Z,102597.70
2019-03-21T00:05:30.016Z,102600.53
2019-03-21T00:07:59.462Z,102592.71
2019-03-21T00:10:32.029Z,102593.27
2019-03-21T00:13:01.773Z,102596.14
2019-03-21T00:15:40.283Z,102601.05
2019-03-21T00:18:12.614Z,102595.28
2019-03-21T00:20:42.123Z,102594.31
2019-03-21T00:23:11.689Z,102594.66
2019-03-21T00:25:41.136Z,102599.33
2019-03-21T00:28:10.634Z,102599.78
2019-03-21T00:30:40.149Z,102601.80
2019-03-21T00:33:09.604Z,102602.91
2019-03-21T00:35:39.157Z,102603.19
2019-03-21T00:38:08.656Z,102602.09
2019-03-21T00:40:43.770Z,102603.36
2019-03-21T00:43:13.286Z,102600.02
2019-03-21T00:45:42.905Z,102600.70
2019-03-21T00:48:16.340Z,102595.53
2019-03-21T00:50:45.929Z,102599.51
2019-03-21T00:53:15.514Z,102592.48
2019-03-21T00:55:48.407Z,102589.08
2019-03-21T00:58:17.903Z,102587.02
2019-03-21T01:00:53.410Z,102588.97
2019-03-21T01:03:22.893Z,102587.64
2019-03-21T01:05:52.408Z,102586.27
2019-03-21T01:08:21.878Z,102586.73
2019-03-21T01:10:52.245Z,102580.38
2019-03-21T01:13:22.233Z,102580.38
2019-03-21T01:15:51.781Z,102581.65
2019-03-21T01:18:21.267Z,102580.27
2019-03-21T01:20:51.816Z,102577.05
2019-03-21T01:23:21.297Z,102570.78
2019-03-21T01:25:54.113Z,102572.34
2019-03-21T01:28:23.559Z,102569.85
2019-03-21T01:30:53.039Z,102574.64
2019-03-21T01:33:22.488Z,102571.12
2019-03-21T01:35:52.052Z,102564.63
2019-03-21T01:38:21.497Z,102562.89
2019-03-21T01:40:58.990Z,102567.80
2019-03-21T01:43:28.492Z,102557.14
2019-03-21T01:45:59.213Z,102555.98
2019-03-21T01:48:28.789Z,102548.72
2019-03-21T01:50:58.287Z,102556.84
2019-03-21T01:53:27.748Z,102550.91
2019-03-21T01:55:57.302Z,102541.34
2019-03-21T01:58:26.913Z,102540.98
2019-03-21T02:00:57.443Z,102543.75
2019-03-21T02:03:26.988Z,102545.23
2019-03-21T02:05:56.441Z,102539.48
2019-03-21T02:08:25.925Z,102542.14
2019-03-21T02:10:55.572Z,102547.14
2019-03-21T02:13:25.423Z,102535.61
2019-03-21T02:15:54.864Z,102526.53
2019-03-21T02:18:24.358Z,102521.59
2019-03-21T02:20:53.874Z,102522.33
2019-03-21T02:23:23.597Z,102521.48
2019-03-21T02:25:53.153Z,102518.53
2019-03-21T02:28:22.607Z,102520.72
2019-03-21T02:30:55.125Z,102515.88
2019-03-21T02:33:35.362Z,102513.30
2019-03-21T02:36:10.390Z,102507.64
2019-03-21T02:38:39.885Z,102509.17
2019-03-21T02:41:12.269Z,102515.34
2019-03-21T02:43:41.826Z,102518.39
2019-03-21T02:46:11.278Z,102519.62
2019-03-21T02:48:40.785Z,102511.77
2019-03-21T02:51:10.215Z,102512.64
2019-03-21T02:53:40.152Z,102515.73
2019-03-21T02:56:17.361Z,102512.17
2019-03-21T02:58:46.810Z,102511.32
2019-03-21T03:01:16.299Z,102516.83
2019-03-21T03:03:45.746Z,102511.94
2019-03-21T03:06:15.222Z,102514.17
2019-03-21T03:08:44.703Z,102523.80
2019-03-21T03:11:22.212Z,102516.67
2019-03-21T03:13:52.079Z,102518.00
2019-03-21T03:16:23.200Z,102520.19
2019-03-21T03:18:52.650Z,102516.77
2019-03-21T03:21:22.124Z,102519.88
2019-03-21T03:23:51.586Z,102515.15
2019-03-21T03:26:21.062Z,102515.15
2019-03-21T03:28:50.531Z,102523.97
2019-03-21T03:31:20.090Z,102521.33
2019-03-21T03:33:49.549Z,102519.59
2019-03-21T03:36:19.050Z,102521.67
2019-03-21T03:38:48.555Z,102528.75
2019-03-21T03:41:20.165Z,102526.04
2019-03-21T03:43:49.814Z,102534.75
2019-03-21T03:46:19.368Z,102535.66
2019-03-21T03:48:48.851Z,102532.22
2019-03-21T03:51:18.520Z,102533.19
2019-03-21T03:53:47.966Z,102534.16
2019-03-21T03:56:17.437Z,102540.31
2019-03-21T03:58:55.758Z,102537.16
2019-03-21T04:01:25.232Z,102529.52
2019-03-21T04:03:54.775Z,102531.39
2019-03-21T04:06:24.325Z,102540.38
2019-03-21T04:08:53.825Z,102543.99
2019-03-21T04:11:23.758Z,102551.14
2019-03-21T04:13:53.286Z,102546.34
2019-03-21T04:16:22.764Z,102548.70
2019-03-21T04:18:52.238Z,102546.11
2019-03-21T04:21:21.749Z,102538.09
2019-03-21T04:23:51.196Z,102544.66
2019-03-21T04:26:32.874Z,102544.52
2019-03-21T04:29:02.336Z,102551.03
2019-03-21T04:31:31.824Z,102545.61
2019-03-21T04:34:04.305Z,102544.99
2019-03-21T04:36:37.107Z,102541.26
2019-03-21T04:39:13.901Z,102544.26
2019-03-21T04:41:45.762Z,102544.96
2019-03-21T04:44:22.499Z,102544.84
2019-03-21T04:46:53.401Z,102543.52
2019-03-21T04:49:23.477Z,102545.66
2019-03-21T04:51:53.040Z,102547.05
2019-03-21T04:54:22.526Z,102550.20
2019-03-21T04:56:52.028Z,102551.11
2019-03-21T04:59:21.550Z,102551.99
2019-03-21T05:01:51.131Z,102546.28
2019-03-21T05:04:20.613Z,102554.17
2019-03-21T05:06:50.152Z,102555.09
2019-03-21T05:09:19.591Z,102548.17
2019-03-21T05:11:49.074Z,102555.27
2019-03-21T05:14:19.596Z,102550.02
2019-03-21T05:16:49.170Z,102553.94
2019-03-21T05:19:18.611Z,102548.64
2019-03-21T05:21:48.103Z,102552.67
2019-03-21T05:24:17.576Z,102553.53
2019-03-21T05:26:47.081Z,102557.50
2019-03-21T05:29:16.790Z,102562.74
2019-03-21T05:31:46.295Z,102562.64
2019-03-21T05:34:15.983Z,102566.50
2019-03-21T05:36:45.485Z,102570.47
2019-03-21T05:39:15.000Z,102568.68
2019-03-21T05:41:44.826Z,102569.66
2019-03-21T05:44:23.153Z,102568.86
2019-03-21T05:46:52.629Z,102569.42
2019-03-21T05:49:22.142Z,102567.45
2019-03-21T05:51:51.577Z,102566.95
2019-03-21T05:54:21.057Z,102570.86
2019-03-21T05:56:50.544Z,102576.22
2019-03-21T05:59:19.994Z,102578.46
2019-03-21T06:01:49.471Z,102581.45
2019-03-21T06:04:18.955Z,102588.20
2019-03-21T06:06:55.447Z,102581.28
2019-03-21T06:09:24.892Z,102583.67
2019-03-21T06:11:57.575Z,102590.77
2019-03-21T06:14:27.554Z,102581.50
2019-03-21T06:16:57.049Z,102585.34
2019-03-21T06:19:29.582Z,102588.41
2019-03-21T06:22:14.195Z,102588.59
2019-03-21T06:24:49.556Z,102591.39
2019-03-21T06:27:27.063Z,102597.22
2019-03-21T06:29:56.905Z,102599.92
2019-03-21T06:32:27.287Z,102602.22
2019-03-21T06:34:57.520Z,102596.16
2019-03-21T06:37:28.966Z,102601.40
2019-03-21T06:39:58.825Z,102599.72
2019-03-21T06:42:28.299Z,102601.16
2019-03-21T06:44:57.787Z,102605.60
2019-03-21T06:47:27.561Z,102605.60
2019-03-21T06:49:57.006Z,102602.90
2019-03-21T06:52:26.528Z,102607.44
2019-03-21T06:54:56.055Z,102599.83
2019-03-21T06:57:25.566Z,102601.16
2019-03-21T06:59:55.041Z,102607.91
2019-03-21T07:02:24.676Z,102606.67
2019-03-21T07:04:54.241Z,102616.47
2019-03-21T07:07:24.323Z,102620.16
2019-03-21T07:09:53.803Z,102615.88
2019-03-21T07:12:23.287Z,102614.70
2019-03-21T07:14:52.767Z,102609.02
2019-03-21T07:17:23.082Z,102617.67
2019-03-21T07:19:52.715Z,102619.15
2019-03-21T07:22:22.173Z,102616.61
2019-03-21T07:24:51.783Z,102611.51
2019-03-21T07:27:21.261Z,102605.45
2019-03-21T07:29:50.718Z,102615.35
2019-03-21T07:32:20.267Z,102611.98
2019-03-21T07:34:49.742Z,102617.91
2019-03-21T07:37:19.229Z,102621.64
2019-03-21T07:39:48.675Z,102620.42
2019-03-21T07:42:18.152Z,102618.78
2019-03-21T07:44:47.635Z,102618.27
2019-03-21T07:47:17.127Z,102622.96
2019-03-21T07:49:46.644Z,102613.01
2019-03-21T07:52:16.140Z,102613.16
2019-03-21T07:54:45.653Z,102616.84
2019-03-21T07:57:15.140Z,102613.22
2019-03-21T07:59:44.588Z,102618.12
2019-03-21T08:02:14.082Z,102624.39
2019-03-21T08:04:43.524Z,102624.13
2019-03-21T08:07:13.141Z,102620.03
2019-03-21T08:09:42.739Z,102629.48
2019-03-21T08:12:12.308Z,102631.67
2019-03-21T08:14:41.780Z,102634.02
2019-03-21T08:17:11.319Z,102633.39
2019-03-21T08:19:40.923Z,102625.16
2019-03-21T08:22:10.380Z,102625.16
2019-03-21T08:24:39.861Z,102626.55
2019-03-21T08:27:09.361Z,102622.89
2019-03-21T08:29:38.846Z,102625.19
2019-03-21T08:32:08.298Z,102625.62
2019-03-21T08:34:37.814Z,102625.25
2019-03-21T08:37:07.347Z,102624.93
2019-03-21T08:39:36.789Z,102626.63
2019-03-21T08:42:06.291Z,102631.05
2019-03-21T08:44:35.745Z,102629.07
2019-03-21T08:47:05.404Z,102623.89
2019-03-21T08:49:34.897Z,102626.02
2019-03-21T08:52:04.437Z,102616.68
2019-03-21T08:54:35.048Z,102621.22
2019-03-21T08:57:04.731Z,102622.96
2019-03-21T08:59:34.302Z,102626.33
2019-03-21T09:02:04.579Z,102632.19
2019-03-21T09:04:34.032Z,102624.05
2019-03-21T09:07:04.633Z,102615.61
2019-03-21T09:09:34.108Z,102621.55
2019-03-21T09:12:04.594Z,102623.12
2019-03-21T09:14:36.699Z,102623.84
2019-03-21T09:17:06.397Z,102628.84
2019-03-21T09:19:35.901Z,102623.13
2019-03-21T09:22:05.470Z,102622.33
2019-03-21T09:24:34.906Z,102625.17
2019-03-21T09:27:04.651Z,102627.98
2019-03-21T09:29:34.173Z,102623.33
2019-03-21T09:32:04.563Z,102623.13
2019-03-21T09:34:34.126Z,102626.57
2019-03-21T09:37:04.565Z,102622.46
2019-03-21T09:39:34.084Z,102619.22
2019-03-21T09:42:04.563Z,102622.06
2019-03-21T09:44:34.041Z,102627.47
2019-03-21T09:47:04.589Z,102624.96
2019-03-21T09:49:34.117Z,102617.64
2019-03-21T09:52:04.556Z,102620.34
2019-03-21T09:54:34.096Z,102626.07
2019-03-21T09:57:04.429Z,102625.12
2019-03-21T09:59:33.960Z,102633.06
2019-03-21T10:02:04.454Z,102628.19
2019-03-21T10:04:33.893Z,102624.41
2019-03-21T10:07:04.462Z,102621.97
2019-03-21T10:09:33.953Z,102624.47
2019-03-21T10:12:04.516Z,102629.23
2019-03-21T10:14:34.239Z,102624.53
2019-03-21T10:17:04.604Z,102622.98
2019-03-21T10:19:35.088Z,102618.81
2019-03-21T10:22:04.581Z,102622.63
2019-03-21T10:24:34.213Z,102624.41
2019-03-21T10:27:04.589Z,102630.20
2019-03-21T10:29:34.077Z,102630.11
2019-03-21T10:32:13.914Z,102636.24
2019-03-21T10:34:35.601Z,102630.78
2019-03-21T10:37:05.081Z,102626.05
2019-03-21T10:39:34.580Z,102635.45
2019-03-21T10:42:04.434Z,102628.89
2019-03-21T10:44:33.924Z,102626.68
2019-03-21T10:47:04.468Z,102627.80
2019-03-21T10:49:34.076Z,102625.48
2019-03-21T10:52:04.541Z,102622.42
2019-03-21T10:54:34.036Z,102621.62
2019-03-21T10:57:04.667Z,102617.13
2019-03-21T10:59:34.117Z,102622.94
2019-03-21T11:02:07.590Z,102615.95
2019-03-21T11:04:35.799Z,102613.28
2019-03-21T11:07:04.116Z,102613.25
2019-03-21T11:09:33.623Z,102615.43
2019-03-21T11:12:03.155Z,102614.29
2019-03-21T11:14:32.633Z,102611.03
2019-03-21T11:17:02.113Z,102608.83
2019-03-21T11:19:31.593Z,102607.05
2019-03-21T11:22:06.320Z,102608.54
2019-03-21T11:24:33.179Z,102595.52
2019-03-21T11:27:03.136Z,102589.42
2019-03-21T11:29:32.598Z,102592.71
2019-03-21T11:32:02.097Z,102588.55
2019-03-21T11:34:32.208Z,102582.75
2019-03-21T11:37:01.732Z,102577.55
2019-03-21T11:39:31.229Z,102567.64
2019-03-21T11:42:00.722Z,102570.50
2019-03-21T11:44:30.363Z,102561.56
2019-03-21T11:46:59.818Z,102556.72
2019-03-21T11:49:29.364Z,102569.08
2019-03-21T11:51:58.876Z,102562.11
2019-03-21T11:54:28.414Z,102561.52
2019-03-21T11:56:57.927Z,102559.21
2019-03-21T11:59:41.371Z,102565.42
2019-03-21T12:01:58.589Z,102565.98
2019-03-21T12:04:30.855Z,102559.17
2019-03-21T12:07:00.341Z,102551.41
2019-03-21T12:09:29.816Z,102552.06
2019-03-21T12:11:59.263Z,102551.61
2019-03-21T12:14:28.756Z,102555.94
2019-03-21T12:16:58.251Z,102549.89
2019-03-21T12:19:27.878Z,102545.27
2019-03-21T12:21:57.361Z,102545.88
2019-03-21T12:24:26.810Z,102546.39
2019-03-21T12:26:56.322Z,102545.64
2019-03-21T12:29:25.906Z,102546.22
2019-03-21T12:31:55.395Z,102543.97
2019-03-21T12:34:24.849Z,102537.67
2019-03-21T12:36:54.331Z,102535.42
2019-03-21T12:39:23.796Z,102531.55
2019-03-21T12:41:53.349Z,102534.84
2019-03-21T12:44:22.898Z,102528.92
2019-03-21T12:46:52.387Z,102526.11
2019-03-21T12:49:21.940Z,102518.98
2019-03-21T12:51:51.466Z,102517.11
2019-03-21T12:54:20.917Z,102514.07
2019-03-21T12:56:52.972Z,102512.02
2019-03-21T12:59:21.695Z,102511.59
2019-03-21T13:01:51.223Z,102505.88
2019-03-21T13:04:20.711Z,102508.61
2019-03-21T13:06:50.201Z,102497.53
2019-03-21T13:09:19.979Z,102500.33
2019-03-21T13:11:49.458Z,102505.35
2019-03-21T13:14:18.980Z,102499.05
2019-03-21T13:16:48.541Z,102498.11
2019-03-21T13:19:18.033Z,102492.39
2019-03-21T13:21:47.513Z,102486.66
2019-03-21T13:24:19.463Z,102482.27
2019-03-21T13:26:48.339Z,102481.36
2019-03-21T13:29:17.848Z,102480.94
2019-03-21T13:31:47.337Z,102472.84
2019-03-21T13:34:16.811Z,102472.84
2019-03-21T13:36:46.314Z,102467.00
2019-03-21T13:39:15.763Z,102475.03
2019-03-21T13:41:45.255Z,102474.56
2019-03-21T13:44:14.741Z,102464.20
2019-03-21T13:46:44.226Z,102472.64
2019-03-21T13:49:13.685Z,102470.77
2019-03-21T13:51:43.187Z,102466.84
2019-03-21T13:54:12.678Z,102463.80
2019-03-21T13:56:42.173Z,102460.70
2019-03-21T13:59:11.670Z,102451.45
2019-03-21T14:01:41.161Z,102451.02
2019-03-21T14:04:10.695Z,102447.85
2019-03-21T14:06:40.185Z,102453.37
2019-03-21T14:09:09.925Z,102450.75
2019-03-21T14:11:39.431Z,102446.16
2019-03-21T14:14:09.869Z,102445.73
2019-03-21T14:16:39.429Z,102445.73
2019-03-21T14:19:08.914Z,102437.63
2019-03-21T14:21:39.508Z,102434.52
2019-03-21T14:24:09.104Z,102434.92
2019-03-21T14:26:39.619Z,102438.00
2019-03-21T14:29:12.844Z,102425.02
2019-03-21T14:31:41.414Z,102425.91
2019-03-21T14:34:10.879Z,102429.41
2019-03-21T14:36:40.377Z,102427.59
2019-03-21T14:39:09.865Z,102417.41
2019-03-21T14:41:39.360Z,102415.75
2019-03-21T14:44:09.046Z,102414.91
2019-03-21T14:46:38.488Z,102415.32
2019-03-21T14:49:08.083Z,102416.30
2019-03-21T14:51:37.552Z,102417.23
2019-03-21T14:54:07.069Z,102413.70
2019-03-21T14:56:36.546Z,102413.70
2019-03-21T14:59:06.102Z,102407.91
2019-03-21T15:01:35.610Z,102407.12
2019-03-21T15:04:05.114Z,102404.17
2019-03-21T15:06:34.662Z,102403.77
2019-03-21T15:09:06.379Z,102402.45
2019-03-21T15:11:37.980Z,102409.06
2019-03-21T15:14:07.447Z,102403.80
2019-03-21T15:16:36.996Z,102404.74
2019-03-21T15:19:06.878Z,102407.40
2019-03-21T15:21:36.370Z,102400.64
2019-03-21T15:24:05.933Z,102399.97
2019-03-21T15:26:35.545Z,102390.86
2019-03-21T15:29:05.098Z,102402.33
2019-03-21T15:31:34.546Z,102395.12
2019-03-21T15:34:04.541Z,102397.34
2019-03-21T15:36:34.033Z,102398.27
2019-03-21T15:39:07.344Z,102398.72
2019-03-21T15:41:38.130Z,102396.98
2019-03-21T15:44:07.721Z,102405.52
2019-03-21T15:46:38.785Z,102404.64
2019-03-21T15:49:08.502Z,102408.67
2019-03-21T15:51:38.344Z,102414.47
2019-03-21T15:54:07.916Z,102414.47
2019-03-21T15:56:37.434Z,102417.97
2019-03-21T15:59:06.928Z,102408.98
2019-03-21T16:01:36.440Z,102409.76
2019-03-21T16:04:06.013Z,102401.62
2019-03-21T16:06:35.526Z,102412.70
2019-03-21T16:09:06.967Z,102411.27
2019-03-21T16:11:36.391Z,102410.20
2019-03-21T16:14:06.040Z,102412.33
2019-03-21T16:16:35.515Z,102412.70
2019-03-21T16:19:05.194Z,102415.72
2019-03-21T16:21:34.638Z,102407.58
2019-03-21T16:24:05.772Z,102414.62
2019-03-21T16:26:37.142Z,102409.68
2019-03-21T16:29:06.642Z,102395.84
2019-03-21T16:31:36.213Z,102399.75
2019-03-21T16:34:05.693Z,102404.15
2019-03-21T16:36:35.182Z,102406.61
2019-03-21T16:39:06.808Z,102403.87
2019-03-21T16:41:36.254Z,102413.54
2019-03-21T16:44:05.946Z,102412.96
2019-03-21T16:46:35.366Z,102416.42
2019-03-21T16:49:04.986Z,102413.63
2019-03-21T16:51:34.430Z,102416.15
2019-03-21T16:54:16.242Z,102411.52
2019-03-21T16:56:36.878Z,102409.08
2019-03-21T16:59:06.384Z,102400.90
2019-03-21T17:01:35.884Z,102401.23
2019-03-21T17:04:05.356Z,102406.36
2019-03-21T17:06:34.827Z,102413.77
2019-03-21T17:09:07.297Z,102414.52
2019-03-21T17:11:36.791Z,102413.45
2019-03-21T17:14:07.119Z,102419.09
2019-03-21T17:16:36.679Z,102419.77
2019-03-21T17:19:06.240Z,102424.05
2019-03-21T17:21:35.866Z,102436.30
2019-03-21T17:24:07.449Z,102427.20
2019-03-21T17:26:37.417Z,102430.56
2019-03-21T17:29:06.930Z,102415.25
2019-03-21T17:31:36.403Z,102411.03
2019-03-21T17:34:06.042Z,102416.14
2019-03-21T17:36:35.705Z,102410.59
2019-03-21T17:39:08.079Z,102415.34
2019-03-21T17:41:37.742Z,102417.82
2019-03-21T17:44:07.770Z,102422.91
2019-03-21T17:46:37.232Z,102422.22
2019-03-21T17:49:06.733Z,102427.77
2019-03-21T17:51:36.204Z,102423.62
2019-03-21T17:54:05.813Z,102421.14
2019-03-21T17:56:35.363Z,102425.38
2019-03-21T17:59:04.879Z,102425.14
2019-03-21T18:01:35.411Z,102427.22
2019-03-21T18:04:05.557Z,102424.86
2019-03-21T18:06:36.163Z,102424.73
2019-03-21T18:09:08.091Z,102437.39
2019-03-21T18:11:39.097Z,102436.31
2019-03-21T18:14:08.872Z,102440.55
2019-03-21T18:16:38.576Z,102440.30
2019-03-21T18:19:08.311Z,102438.80
2019-03-21T18:21:37.905Z,102433.31
2019-03-21T18:24:07.699Z,102433.64
2019-03-21T18:26:37.206Z,102426.91
2019-03-21T18:29:06.778Z,102430.77
2019-03-21T18:31:36.345Z,102436.41
2019-03-21T18:34:05.843Z,102438.55
2019-03-21T18:36:35.578Z,102440.16
2019-03-21T18:39:07.107Z,102444.01
2019-03-21T18:41:36.674Z,102445.61
2019-03-21T18:44:06.318Z,102445.02
2019-03-21T18:46:36.256Z,102440.03
2019-03-21T18:49:06.078Z,102446.98
2019-03-21T18:51:35.643Z,102452.16
2019-03-21T18:54:05.288Z,102462.23
2019-03-21T18:56:34.795Z,102462.12
2019-03-21T18:59:04.621Z,102464.65
2019-03-21T19:01:34.133Z,102461.48
2019-03-21T19:04:04.578Z,102466.61
2019-03-21T19:06:34.154Z,102465.55
2019-03-21T19:09:07.152Z,102471.13
2019-03-21T19:11:36.706Z,102476.33
2019-03-21T19:14:06.230Z,102477.42
2019-03-21T19:16:36.959Z,102481.76
2019-03-21T19:19:06.468Z,102483.34
2019-03-21T19:21:35.975Z,102483.20
2019-03-21T19:24:05.579Z,102484.43
2019-03-21T19:26:35.659Z,102483.83
2019-03-21T19:29:05.409Z,102488.11
2019-03-21T19:31:35.017Z,102491.94
2019-03-21T19:34:04.535Z,102492.30
2019-03-21T19:36:34.071Z,102483.27
2019-03-21T19:39:07.318Z,102491.39
2019-03-21T19:41:36.899Z,102484.23
2019-03-21T19:44:06.531Z,102492.96
2019-03-21T19:46:35.979Z,102481.77
2019-03-21T19:49:05.567Z,102486.14
2019-03-21T19:51:35.029Z,102480.23
2019-03-21T19:54:04.945Z,102487.68
2019-03-21T19:56:34.418Z,102487.58
2019-03-21T19:59:04.485Z,102487.87
2019-03-21T20:01:34.029Z,102489.55
2019-03-21T20:04:04.549Z,102486.80
2019-03-21T20:06:34.076Z,102484.91
2019-03-21T20:09:06.526Z,102490.45
2019-03-21T20:11:36.017Z,102494.79
2019-03-21T20:14:05.548Z,102496.83
2019-03-21T20:16:35.291Z,102482.91
2019-03-21T20:19:04.950Z,102480.45
2019-03-21T20:21:34.383Z,102481.45
2019-03-21T20:24:04.569Z,102478.64
2019-03-21T20:26:34.133Z,102481.19
2019-03-21T20:29:04.951Z,102490.84
2019-03-21T20:31:34.848Z,102488.97
2019-03-21T20:34:05.514Z,102495.38
2019-03-21T20:36:36.167Z,102491.23
2019-03-21T20:39:08.051Z,102487.96
2019-03-21T20:41:37.642Z,102483.37
2019-03-21T20:44:14.984Z,102477.55
2019-03-21T20:46:39.278Z,102476.98
2019-03-21T20:49:09.196Z,102472.39
2019-03-21T20:51:38.820Z,102474.45
2019-03-21T20:54:08.330Z,102479.94
2019-03-21T20:56:37.916Z,102478.38
2019-03-21T20:59:07.512Z,102475.58
2019-03-21T21:01:37.040Z,102478.22
2019-03-21T21:04:06.677Z,102474.64
2019-03-21T21:06:36.193Z,102478.10
2019-03-21T21:09:07.411Z,102477.48
2019-03-21T21:11:37.494Z,102469.42
2019-03-21T21:14:08.209Z,102473.73
2019-03-21T21:16:37.711Z,102477.08
2019-03-21T21:19:07.242Z,102474.31
2019-03-21T21:21:36.928Z,102475.52
2019-03-21T21:24:06.611Z,102478.38
2019-03-21T21:26:36.100Z,102478.44
2019-03-21T21:29:06.152Z,102479.48
2019-03-21T21:31:35.838Z,102485.11
2019-03-21T21:34:05.691Z,102491.66
2019-03-21T21:36:35.275Z,102502.23
2019-03-21T21:39:07.237Z,102500.85
2019-03-21T21:41:37.122Z,102499.84
2019-03-21T21:44:06.769Z,102504.02
2019-03-21T21:46:36.308Z,102510.00
2019-03-21T21:49:05.978Z,102506.52
2019-03-21T21:51:35.465Z,102511.72
2019-03-21T21:54:05.017Z,102513.66
2019-03-21T21:56:34.488Z,102515.53
2019-03-21T21:59:04.525Z,102525.33
2019-03-21T22:01:34.051Z,102529.97
2019-03-21T22:04:05.279Z,102522.72
2019-03-21T22:06:34.801Z,102519.47
2019-03-21T22:09:06.107Z,102518.75
2019-03-21T22:11:35.741Z,102518.75
2019-03-21T22:14:05.571Z,102523.12
2019-03-21T22:16:35.020Z,102523.19
2019-03-21T22:19:04.680Z,102525.77
2019-03-21T22:21:34.190Z,102530.64
2019-03-21T22:24:04.569Z,102532.70
2019-03-21T22:26:34.012Z,102532.56
2019-03-21T22:29:04.429Z,102526.23
2019-03-21T22:31:33.917Z,102524.80
2019-03-21T22:34:04.531Z,102532.19
2019-03-21T22:36:34.031Z,102533.44
2019-03-21T22:39:06.540Z,102531.61
2019-03-21T22:41:36.084Z,102535.09
2019-03-21T22:44:06.019Z,102534.04
2019-03-21T22:46:35.581Z,102530.01
2019-03-21T22:49:05.051Z,102532.98
2019-03-21T22:51:34.507Z,102539.08
2019-03-21T22:54:04.487Z,102531.42
2019-03-21T22:56:41.077Z,102527.25
2019-03-21T22:59:05.119Z,102529.64
2019-03-21T23:01:34.651Z,102522.32
2019-03-21T23:04:04.567Z,102514.99
2019-03-21T23:06:35.099Z,102515.33
2019-03-21T23:09:07.670Z,102511.63
2019-03-21T23:11:37.202Z,102515.45
2019-03-21T23:14:06.643Z,102510.17
2019-03-21T23:16:36.207Z,102506.21
2019-03-21T23:19:05.725Z,102504.89
2019-03-21T23:21:35.199Z,102501.53
2019-03-21T23:24:04.772Z,102501.64
2019-03-21T23:26:34.319Z,102494.06
2019-03-21T23:29:04.424Z,102491.28
2019-03-21T23:31:34.039Z,102497.36
2019-03-21T23:34:04.481Z,102490.84
2019-03-21T23:36:34.965Z,102488.98
2019-03-21T23:39:06.241Z,102487.66
2019-03-21T23:41:35.741Z,102489.78
2019-03-21T23:44:05.364Z,102483.70
2019-03-21T23:46:34.902Z,102486.73
2019-03-21T23:49:04.554Z,102476.92
2019-03-21T23:51:34.205Z,102478.58
2019-03-21T23:54:04.704Z,102481.14
2019-03-21T23:56:34.174Z,102475.39
2019-03-21T23:59:04.551Z,102482.39
